Time;durP1;ratioP1;P1;durP2;ratioP2;P2;SDS_P1;SDS_P2;PMS_P1;PMS_P2;Temp;Humidity;BMP_temperature;BMP_pressure;BME280_temperature;BME280_humidity;BME280_pressure;Samples;Min_cycle;Max_cycle;Signal;HPM_P1;HPM_P2
2022/06/22 07:36:06;;;;;;;11.85;6.55;;;20.60;75.10;;;;;;6236653;22;20016;-81
2022/06/22 07:39:01;;;;;;;12.57;6.18;;;20.70;76.10;;;;;;6223567;22;20070;-75
2022/06/22 07:41:37;;;;;;;13.70;6.18;;;20.90;74.30;;;;;;6249339;22;20011;-73
2022/06/22 07:44:11;;;;;;;16.98;5.50;;;20.90;75.30;;;;;;6250656;22;20014;-75
2022/06/22 07:46:43;;;;;;;12.75;5.20;;;21.10;74.00;;;;;;6251215;22;20321;-76
2022/06/22 07:49:23;;;;;;;11.02;5.00;;;21.00;70.30;;;;;;6225869;22;20014;-77
2022/06/22 07:51:52;;;;;;;10.63;4.65;;;21.10;70.50;;;;;;6251617;22;20008;-77
2022/06/22 07:54:37;;;;;;;10.00;4.57;;;21.20;71.40;;;;;;6251172;22;20322;-77
2022/06/22 07:57:12;;;;;;;13.48;5.13;;;21.50;70.50;;;;;;6225158;22;20062;-77
2022/06/22 07:59:48;;;;;;;8.80;4.47;;;21.50;70.10;;;;;;6251199;22;20011;-76
2022/06/22 08:02:27;;;;;;;9.07;4.60;;;21.60;70.80;;;;;;6225862;22;20015;-75
2022/06/22 08:05:05;;;;;;;14.98;4.65;;;22.10;71.00;;;;;;6251506;22;20009;-75
2022/06/22 08:07:46;;;;;;;12.43;4.90;;;22.20;68.60;;;;;;6251182;22;20099;-76
2022/06/22 08:10:24;;;;;;;11.45;5.15;;;22.30;68.40;;;;;;6251267;22;20004;-76
2022/06/22 08:13:14;;;;;;;13.48;4.93;;;22.20;68.40;;;;;;6226032;22;20095;-76
2022/06/22 08:15:49;;;;;;;15.75;4.95;;;22.00;67.30;;;;;;6250914;22;20422;-77
2022/06/22 08:18:15;;;;;;;14.80;4.95;;;22.00;67.90;;;;;;6225452;22;20054;-76
2022/06/22 08:20:45;;;;;;;11.25;4.22;;;21.80;69.50;;;;;;6250942;22;20318;-76
2022/06/22 08:23:20;;;;;;;26.23;5.35;;;22.10;69.30;;;;;;6225879;22;20012;-77
2022/06/22 08:25:48;;;;;;;11.90;5.63;;;22.20;70.20;;;;;;6225706;22;20138;-76
2022/06/22 08:28:17;;;;;;;12.57;5.75;;;22.40;70.40;;;;;;6225809;22;20057;-76
2022/06/22 08:30:43;;;;;;;9.02;4.20;;;22.50;69.60;;;;;;6225689;22;20007;-78
2022/06/22 08:33:22;;;;;;;9.65;4.22;;;22.30;69.40;;;;;;6225601;22;20078;-77
2022/06/22 08:35:52;;;;;;;13.65;4.25;;;22.50;68.70;;;;;;6225384;22;20018;-74
2022/06/22 08:38:40;;;;;;;12.48;4.75;;;22.50;67.60;;;;;;6277964;22;20010;-71
2022/06/22 08:41:19;;;;;;;12.75;4.00;;;22.50;65.70;;;;;;6251078;22;20017;-79
2022/06/22 08:44:00;;;;;;;13.43;4.93;;;22.50;67.70;;;;;;6225823;22;20026;-77
2022/06/22 08:47:02;;;;;;;16.27;4.95;;;22.60;67.00;;;;;;6250436;22;20012;-82
2022/06/22 08:49:39;;;;;;;14.05;5.97;;;22.60;68.10;;;;;;6226499;22;20047;-81
2022/06/22 08:52:41;;;;;;;12.60;5.32;;;22.20;69.20;;;;;;6234065;22;20449;-80
2022/06/22 08:55:27;;;;;;;14.27;5.25;;;22.50;69.50;;;;;;6228022;22;20354;-79
2022/06/22 08:58:21;;;;;;;11.17;5.00;;;22.60;68.90;;;;;;6226071;22;20054;-78
2022/06/22 09:01:09;;;;;;;13.43;5.13;;;22.40;69.00;;;;;;6250797;22;20307;-75
2022/06/22 09:07:59;;;;;;;10.73;4.57;;;22.50;70.40;;;;;;6125637;22;20017;-77
2022/06/22 09:11:11;;;;;;;12.32;4.30;;;22.30;69.30;;;;;;6241507;22;20016;-79
2022/06/22 09:14:10;;;;;;;10.23;3.47;;;22.50;67.80;;;;;;6092656;23;20061;-78
2022/06/22 09:16:57;;;;;;;10.23;3.70;;;22.60;68.50;;;;;;6111706;22;20015;-77
2022/06/22 09:19:42;;;;;;;13.00;3.78;;;22.70;67.00;;;;;;6225364;22;20501;-72
2022/06/22 09:22:19;;;;;;;11.30;3.42;;;22.60;68.30;;;;;;6249125;22;20011;-76
2022/06/22 09:25:20;;;;;;;12.23;3.17;;;22.60;67.70;;;;;;6252711;22;20010;-78
2022/06/22 09:28:10;;;;;;;11.68;4.03;;;22.80;67.70;;;;;;6248913;22;20018;-75
2022/06/22 09:30:57;;;;;;;11.45;3.33;;;22.70;65.10;;;;;;6248895;22;20052;-76
2022/06/22 09:34:00;;;;;;;6.10;2.80;;;22.70;65.80;;;;;;6248917;22;20062;-78
2022/06/22 09:36:35;;;;;;;11.07;3.03;;;22.50;65.40;;;;;;6247944;22;20090;-76
2022/06/22 09:39:08;;;;;;;20.48;3.85;;;22.50;65.90;;;;;;6223484;22;20039;-74
2022/06/22 09:41:55;;;;;;;13.52;4.20;;;22.50;67.70;;;;;;6250146;22;20004;-73
2022/06/22 09:44:20;;;;;;;8.88;3.25;;;22.70;68.30;;;;;;6250192;22;20441;-73
2022/06/22 09:47:04;;;;;;;;;;;22.60;66.40;;;;;;6250315;22;20055;-79
2022/06/22 09:49:50;;;;;;;10.52;3.75;;;22.50;66.20;;;;;;6225510;22;19907;-77
2022/06/22 09:52:22;;;;;;;11.25;4.20;;;22.90;66.80;;;;;;6249218;22;20420;-78
2022/06/22 09:58:24;;;;;;;14.15;4.38;;;22.60;67.50;;;;;;6249626;22;20077;-76
2022/06/22 10:01:14;;;;;;;13.30;4.20;;;22.70;67.10;;;;;;6224838;22;20310;-76
2022/06/22 10:03:55;;;;;;;14.93;4.13;;;22.90;67.00;;;;;;6224007;22;20008;-76
2022/06/22 10:06:29;;;;;;;13.00;5.18;;;22.90;67.60;;;;;;6223702;22;20427;-77
2022/06/22 10:08:58;;;;;;;9.35;4.60;;;23.20;67.30;;;;;;6250146;22;20019;-78
2022/06/22 10:11:45;;;;;;;9.82;4.95;;;23.40;67.70;;;;;;6225116;22;20338;-76
2022/06/22 10:14:26;;;;;;;14.30;5.13;;;23.00;66.80;;;;;;6250059;22;20030;-78
2022/06/22 10:17:18;;;;;;;12.68;4.75;;;23.10;66.00;;;;;;6224146;22;20012;-77
2022/06/22 10:19:49;;;;;;;10.70;4.00;;;23.30;65.90;;;;;;6250275;22;20007;-76
2022/06/22 10:22:49;;;;;;;10.70;4.45;;;23.30;67.00;;;;;;6250033;22;20303;-76
2022/06/22 10:25:28;;;;;;;10.55;3.75;;;23.20;66.40;;;;;;6224692;22;20014;-76
2022/06/22 10:28:02;;;;;;;13.50;5.00;;;23.40;67.10;;;;;;6249878;22;20015;-77
2022/06/22 10:30:49;;;;;;;12.80;6.85;;;23.60;66.90;;;;;;6249959;22;20016;-76
2022/06/22 10:33:44;;;;;;;12.98;5.57;;;23.70;67.10;;;;;;6224778;22;20055;-77
2022/06/22 10:36:37;;;;;;;12.75;5.70;;;23.60;66.40;;;;;;6248410;22;20102;-76
2022/06/22 10:39:39;;;;;;;11.45;5.68;;;23.40;67.80;;;;;;6249683;22;20012;-77
2022/06/22 10:45:34;;;;;;;16.30;6.22;;;23.90;66.50;;;;;;6249098;22;20322;-77
2022/06/22 10:48:12;;;;;;;16.13;5.32;;;23.80;66.10;;;;;;6224731;22;20015;-76
2022/06/22 10:51:09;;;;;;;11.15;5.28;;;23.70;66.60;;;;;;6249345;22;20083;-76
2022/06/22 10:54:03;;;;;;;12.18;5.10;;;23.70;64.80;;;;;;6249778;22;20365;-75
2022/06/22 10:56:41;;;;;;;12.75;5.60;;;23.90;65.30;;;;;;6223873;22;20445;-76
2022/06/22 10:59:16;;;;;;;14.00;5.55;;;24.10;67.30;;;;;;6224401;22;20019;-76
2022/06/22 11:02:13;;;;;;;12.70;5.05;;;24.10;66.30;;;;;;6249867;22;20067;-77
2022/06/22 11:05:07;;;;;;;13.73;6.00;;;23.90;67.80;;;;;;6224581;22;20363;-75
2022/06/22 11:08:22;;;;;;;14.73;6.38;;;23.70;67.50;;;;;;6224088;22;20298;-77
2022/06/22 11:11:08;;;;;;;12.48;6.07;;;23.90;68.20;;;;;;6189947;22;20047;-77
2022/06/22 11:13:59;;;;;;;14.90;6.32;;;24.10;67.30;;;;;;6224212;22;20065;-76
2022/06/22 11:16:53;;;;;;;14.38;5.97;;;24.10;66.20;;;;;;6223950;22;20015;-76
2022/06/22 11:20:00;;;;;;;17.13;6.47;;;24.00;66.70;;;;;;6226217;22;20448;-76
2022/06/22 11:22:31;;;;;;;16.02;6.50;;;23.60;66.90;;;;;;6251308;22;20517;-77
2022/06/22 11:31:25;;;;;;;11.02;5.28;;;24.10;67.90;;;;;;6251088;22;20019;-76
2022/06/22 11:34:13;;;;;;;14.13;6.07;;;24.10;66.80;;;;;;6226172;22;20014;-77
2022/06/22 11:37:11;;;;;;;15.65;6.35;;;23.90;65.40;;;;;;6225206;22;20008;-77
2022/06/22 11:39:54;;;;;;;14.82;6.47;;;23.80;67.20;;;;;;6251112;22;20019;-77
2022/06/22 11:42:52;;;;;;;13.48;5.80;;;23.80;67.00;;;;;;6251147;22;20003;-77
2022/06/22 11:45:54;;;;;;;16.77;6.45;;;24.30;66.10;;;;;;6226417;22;20015;-77
2022/06/22 11:48:57;;;;;;;12.40;5.30;;;24.50;66.10;;;;;;6226931;22;20022;-76
2022/06/22 11:52:00;;;;;;;11.75;5.20;;;24.50;67.80;;;;;;6226078;22;20019;-77
2022/06/22 11:54:54;;;;;;;11.43;5.00;;;24.10;66.80;;;;;;6225250;22;20015;-77
2022/06/22 11:57:47;;;;;;;14.63;5.93;;;24.10;68.10;;;;;;6225925;22;20329;-76
2022/06/22 12:00:19;;;;;;;12.55;5.25;;;23.90;67.90;;;;;;6226358;22;20007;-78
2022/06/22 12:02:54;;;;;;;14.85;5.43;;;24.00;67.80;;;;;;6226955;22;20325;-78
2022/06/22 12:05:47;;;;;;;11.82;5.30;;;24.00;68.70;;;;;;6256111;22;20003;-77
2022/06/22 12:08:27;;;;;;;14.40;5.38;;;23.80;67.90;;;;;;6228955;22;20008;-76
2022/06/22 12:10:59;;;;;;;18.70;5.68;;;23.80;68.20;;;;;;6233370;22;20007;-76
2022/06/22 12:17:05;;;;;;;13.73;5.25;;;23.80;68.70;;;;;;6203996;22;20363;-76
2022/06/22 12:19:51;;;;;;;13.13;5.20;;;23.60;69.80;;;;;;6225507;22;20015;-78
2022/06/22 12:22:52;;;;;;;14.45;6.07;;;23.40;70.60;;;;;;6224555;22;20015;-78
2022/06/22 12:25:37;;;;;;;18.90;5.40;;;23.60;70.00;;;;;;6225639;22;20065;-76
2022/06/22 12:28:34;;;;;;;11.18;4.70;;;23.70;70.20;;;;;;6250810;22;20382;-77
2022/06/22 12:31:08;;;;;;;18.63;5.32;;;23.60;71.50;;;;;;6156222;22;20418;-77
2022/06/22 12:33:41;;;;;;;14.65;5.03;;;23.80;69.90;;;;;;6225725;22;20321;-76
2022/06/22 12:36:14;;;;;;;13.10;5.38;;;24.10;69.90;;;;;;6224976;22;20069;-77
2022/06/22 12:39:17;;;;;;;14.25;4.85;;;24.20;68.50;;;;;;6225816;22;20363;-77
2022/06/22 12:42:11;;;;;;;14.38;5.18;;;24.10;70.20;;;;;;6250345;22;20008;-77
2022/06/22 12:45:02;;;;;;;16.35;5.93;;;24.00;69.70;;;;;;6225931;22;20012;-76
2022/06/22 12:48:09;;;;;;;13.98;5.80;;;23.80;69.60;;;;;;6225807;22;20015;-77
2022/06/22 12:51:23;;;;;;;11.40;5.43;;;23.80;70.30;;;;;;6225536;22;20021;-76
2022/06/22 12:54:07;;;;;;;10.95;5.25;;;23.70;70.40;;;;;;6232932;22;20321;-76
2022/06/22 12:56:42;;;;;;;14.75;4.88;;;23.60;70.70;;;;;;6225690;22;20007;-76
2022/06/22 12:59:36;;;;;;;10.95;5.70;;;23.70;70.40;;;;;;6225274;22;20010;-78
2022/06/22 13:02:14;;;;;;;13.48;5.28;;;23.50;70.00;;;;;;6225407;22;20014;-77
2022/06/22 13:04:42;;;;;;;10.77;4.88;;;23.40;69.70;;;;;;6225338;22;20435;-78
2022/06/22 13:07:16;;;;;;;11.68;4.63;;;23.00;71.50;;;;;;6225111;22;20008;-77
2022/06/22 13:09:47;;;;;;;9.07;4.10;;;23.10;71.20;;;;;;6225301;22;20004;-77
2022/06/22 13:12:37;;;;;;;11.02;4.30;;;23.20;71.20;;;;;;6199954;22;20014;-77
2022/06/22 13:15:17;;;;;;;12.45;4.30;;;23.20;72.10;;;;;;6249921;22;20015;-76
2022/06/22 13:18:08;;;;;;;15.07;4.18;;;23.40;71.30;;;;;;6250389;22;20050;-77
2022/06/22 13:20:39;;;;;;;12.48;4.45;;;23.40;70.30;;;;;;6249731;22;20015;-76
2022/06/22 13:23:23;;;;;;;11.25;4.05;;;23.20;70.90;;;;;;6250692;22;20101;-78
2022/06/22 13:26:19;;;;;;;9.52;4.30;;;23.20;70.00;;;;;;6249750;22;20047;-76
2022/06/22 13:28:49;;;;;;;13.48;4.20;;;23.00;71.80;;;;;;6250523;22;20266;-76
2022/06/22 13:31:23;;;;;;;16.60;4.80;;;23.20;72.00;;;;;;6224911;22;20046;-77
2022/06/22 13:34:19;;;;;;;10.07;4.40;;;23.20;68.80;;;;;;6224872;22;20054;-76
2022/06/22 13:36:56;;;;;;;15.23;4.55;;;23.20;71.60;;;;;;6170200;22;20020;-76
2022/06/22 13:39:36;;;;;;;;;;;23.10;71.90;;;;;;6225445;22;20011;-76
2022/06/22 13:42:17;;;;;;;12.73;4.07;;;23.20;72.70;;;;;;6249451;22;19914;-76
2022/06/22 13:45:10;;;;;;;11.73;4.47;;;23.20;70.90;;;;;;6224466;22;20311;-79
2022/06/22 13:47:44;;;;;;;9.80;3.50;;;23.20;71.80;;;;;;6225030;22;20098;-76
2022/06/22 13:50:31;;;;;;;12.55;4.07;;;23.20;72.00;;;;;;6250482;22;20086;-76
2022/06/22 13:53:10;;;;;;;11.98;3.90;;;23.30;70.70;;;;;;6225459;22;20011;-77
2022/06/22 13:55:53;;;;;;;15.02;3.65;;;23.20;70.60;;;;;;6250251;22;20015;-76
2022/06/22 13:58:46;;;;;;;11.68;3.60;;;23.20;71.10;;;;;;6250962;22;20003;-77
2022/06/22 14:01:31;;;;;;;8.77;3.03;;;23.30;69.70;;;;;;6225591;22;20015;-77
2022/06/22 14:04:07;;;;;;;10.07;3.50;;;23.40;69.80;;;;;;6224170;22;20418;-76
2022/06/22 14:06:45;;;;;;;10.55;3.40;;;23.60;68.70;;;;;;6250446;22;20007;-78
2022/06/22 14:09:16;;;;;;;15.38;3.55;;;23.50;68.30;;;;;;6226138;22;20023;-77
2022/06/22 14:12:02;;;;;;;8.30;3.13;;;23.60;68.00;;;;;;6277865;22;20020;-76
2022/06/22 14:14:43;;;;;;;9.10;3.20;;;23.60;67.80;;;;;;6249314;22;20008;-77
2022/06/22 14:17:30;;;;;;;10.30;3.25;;;23.80;67.70;;;;;;6250510;22;20073;-76
2022/06/22 14:20:16;;;;;;;11.10;2.67;;;23.60;67.30;;;;;;6225528;22;20038;-77
2022/06/22 14:23:05;;;;;;;9.95;2.85;;;23.70;67.40;;;;;;6224632;22;20494;-76
2022/06/22 14:25:56;;;;;;;10.32;3.05;;;24.00;67.90;;;;;;6225377;22;20008;-77
2022/06/22 14:28:59;;;;;;;10.50;4.03;;;23.90;66.70;;;;;;6247172;22;20008;-76
2022/06/22 14:31:43;;;;;;;8.18;2.90;;;24.20;65.90;;;;;;6219641;22;20386;-76
2022/06/22 14:34:56;;;;;;;8.02;3.05;;;24.10;66.80;;;;;;6250003;22;20057;-76
2022/06/22 14:37:38;;;;;;;8.18;3.38;;;24.40;64.80;;;;;;6214628;23;20083;-77
2022/06/22 14:40:07;;;;;;;12.25;3.80;;;24.20;66.80;;;;;;6219828;23;20087;-77
2022/06/22 14:42:45;;;;;;;9.57;3.80;;;24.10;66.70;;;;;;6244284;23;20016;-77
2022/06/22 14:45:11;;;;;;;10.32;4.20;;;23.90;68.40;;;;;;6219636;23;20427;-76
2022/06/22 14:47:40;;;;;;;7.68;3.47;;;24.20;67.70;;;;;;6219926;23;20062;-76
2022/06/22 14:50:30;;;;;;;10.13;3.53;;;24.50;66.60;;;;;;6245110;23;20012;-77
2022/06/22 14:53:26;;;;;;;13.63;3.85;;;24.90;65.80;;;;;;6218415;23;20374;-77
2022/06/22 14:56:04;;;;;;;11.48;4.25;;;24.50;66.00;;;;;;6219583;23;20044;-75
2022/06/22 14:58:58;;;;;;;10.75;3.60;;;24.60;65.80;;;;;;6219642;23;20016;-76
2022/06/22 15:01:44;;;;;;;10.00;3.78;;;24.80;65.40;;;;;;6219966;23;20384;-75
2022/06/22 15:04:44;;;;;;;12.02;3.25;;;25.10;65.00;;;;;;6219458;23;20020;-77
2022/06/22 15:07:16;;;;;;;6.90;2.95;;;25.10;64.70;;;;;;6244328;23;20012;-76
2022/06/22 15:10:14;;;;;;;11.55;3.83;;;25.10;64.60;;;;;;6219385;23;20012;-76
2022/06/22 15:12:57;;;;;;;10.02;3.17;;;25.00;64.50;;;;;;6219504;23;20008;-75
2022/06/22 15:15:41;;;;;;;12.02;3.25;;;25.40;63.70;;;;;;6244995;23;20078;-76
2022/06/22 15:18:26;;;;;;;7.32;3.20;;;25.40;64.40;;;;;;6219224;23;20016;-76
2022/06/22 15:21:04;;;;;;;9.15;3.28;;;25.60;62.80;;;;;;6219829;23;20008;-74
2022/06/22 15:23:39;;;;;;;7.95;2.67;;;25.60;62.10;;;;;;6219414;23;20004;-76
2022/06/22 15:26:37;;;;;;;11.82;3.67;;;25.70;62.70;;;;;;6220490;23;20008;-75
2022/06/22 15:29:49;;;;;;;7.50;2.80;;;25.80;62.10;;;;;;6219842;23;20004;-76
2022/06/22 15:32:33;;;;;;;9.20;2.45;;;26.20;61.40;;;;;;6098517;23;20014;-76
2022/06/22 15:35:18;;;;;;;7.20;2.40;;;26.20;60.60;;;;;;6099650;23;20050;-77
2022/06/22 15:37:58;;;;;;;9.57;2.77;;;25.90;60.90;;;;;;6162561;23;20016;-77
2022/06/22 15:40:36;;;;;;;6.75;2.38;;;26.40;60.10;;;;;;6194944;22;20073;-77
2022/06/22 15:43:41;;;;;;;8.45;2.90;;;26.40;60.70;;;;;;6193991;23;20012;-76
2022/06/22 15:46:33;;;;;;;7.95;2.75;;;26.50;60.00;;;;;;6219582;23;20016;-76
2022/06/22 15:49:22;;;;;;;9.43;2.95;;;26.50;59.10;;;;;;6194672;23;20019;-78
2022/06/22 15:52:07;;;;;;;8.95;3.20;;;26.80;59.20;;;;;;6194664;23;20433;-76
2022/06/22 15:55:21;;;;;;;8.60;3.38;;;26.80;58.80;;;;;;6194119;23;20016;-76
2022/06/22 15:58:08;;;;;;;8.20;2.70;;;26.50;59.80;;;;;;6177170;23;20038;-76
2022/06/22 16:00:50;;;;;;;8.77;3.05;;;26.70;60.50;;;;;;6194560;22;20015;-76
2022/06/22 16:03:24;;;;;;;5.32;2.70;;;26.50;59.80;;;;;;6194882;23;20664;-77
2022/06/22 16:06:13;;;;;;;8.15;2.90;;;26.50;60.40;;;;;;6195928;23;20012;-75
2022/06/22 16:09:01;;;;;;;16.52;3.47;;;26.50;60.50;;;;;;6202756;23;20015;-76
2022/06/22 16:15:05;;;;;;;7.22;2.90;;;26.70;60.50;;;;;;6220685;23;20063;-76
2022/06/22 16:17:48;;;;;;;7.10;3.08;;;27.20;59.30;;;;;;6221521;23;20430;-77
2022/06/22 16:20:20;;;;;;;6.57;2.63;;;26.90;59.10;;;;;;6196246;23;20083;-76
2022/06/22 16:23:06;;;;;;;8.18;2.90;;;26.80;59.30;;;;;;6195939;23;20292;-77
2022/06/22 16:26:23;;;;;;;7.43;2.93;;;26.10;60.50;;;;;;6248577;23;20008;-77
2022/06/22 16:33:00;;;;;;;6.82;1.95;;;26.90;60.00;;;;;;6193517;23;20434;-77
2022/06/22 16:36:09;;;;;;;5.95;2.05;;;26.90;59.80;;;;;;6223919;22;20319;-77
2022/06/22 16:39:23;;;;;;;8.60;2.17;;;26.20;60.50;;;;;;6228383;22;20299;-74
2022/06/22 16:41:51;;;;;;;4.82;1.73;;;26.10;60.60;;;;;;6221318;22;20073;-70
2022/06/22 16:44:26;;;;;;;5.38;2.03;;;25.70;62.30;;;;;;6224109;22;20011;-75
2022/06/22 16:48:09;;;;;;;;;;;;;;;;;;;;;
2022/06/22 16:51:54;;;;;;;5.43;1.80;;;25.80;61.90;;;;;;6008310;23;20014;-76
2022/06/22 16:54:45;;;;;;;9.32;1.88;;;25.00;62.60;;;;;;6098604;23;20013;-76
2022/06/22 16:57:40;;;;;;;6.25;1.70;;;25.60;61.90;;;;;;6075008;23;20015;-72
2022/06/22 17:00:07;;;;;;;8.98;1.70;;;24.80;62.40;;;;;;6158824;22;20023;-72
2022/06/22 17:03:22;;;;;;;5.38;1.23;;;24.90;63.10;;;;;;6248777;22;20003;-74
2022/06/22 17:27:11;;;;;;;8.43;2.73;;;20.70;75.30;;;;;;6207078;22;20024;-77
2022/06/22 17:30:05;;;;;;;5.57;2.17;;;20.30;76.30;;;;;;6218113;23;20251;-79
2022/06/22 17:32:59;;;;;;;6.60;2.72;;;20.10;77.30;;;;;;6218874;23;20435;-74
2022/06/22 17:36:10;;;;;;;8.30;3.47;;;19.80;79.60;;;;;;6238476;23;20008;-75
2022/06/22 17:42:16;;;;;;;8.32;3.00;;;19.50;82.40;;;;;;6070353;23;20014;-76
2022/06/22 17:45:11;;;;;;;7.80;3.00;;;19.50;80.70;;;;;;6075620;23;20029;-76
2022/06/22 17:47:41;;;;;;;7.75;3.38;;;19.40;81.00;;;;;;6239031;23;20016;-77
2022/06/22 17:50:26;;;;;;;6.97;2.80;;;19.10;82.60;;;;;;6266253;23;20019;-77
2022/06/22 18:01:02;;;;;;;7.32;3.38;;;18.90;83.30;;;;;;6181637;23;19943;-76
2022/06/22 18:04:26;;;;;;;6.25;3.78;;;18.80;84.20;;;;;;6157073;23;20100;-81
2022/06/22 18:14:18;;;;;;;7.10;3.40;;;18.50;86.00;;;;;;5999702;23;19961;-76
2022/06/22 18:16:59;;;;;;;8.80;3.10;;;18.30;86.20;;;;;;6191299;23;20067;-75
2022/06/22 18:35:43;;;;;;;;;;;;;;;;;;;;;
2022/06/22 18:46:11;;;;;;;7.65;4.10;;;17.50;90.40;;;;;;6093303;23;20019;-73
2022/06/22 19:03:03;;;;;;;7.53;3.30;;;17.00;92.00;;;;;;6069596;23;20110;-69
2022/06/22 19:09:51;;;;;;;5.25;3.78;;;16.90;92.40;;;;;;6035227;23;20073;-72
2022/06/22 19:16:32;;;;;;;6.88;3.83;;;16.70;92.70;;;;;;6074750;23;20018;-72
2022/06/22 19:34:14;;;;;;;6.78;3.50;;;16.30;94.00;;;;;;5864423;24;20075;-72
2022/06/22 19:37:00;;;;;;;6.68;3.55;;;16.20;93.50;;;;;;5851882;24;20380;-73
2022/06/22 19:39:49;;;;;;;6.97;4.13;;;16.10;94.20;;;;;;6022612;23;20021;-73
2022/06/22 19:42:38;;;;;;;5.72;4.28;;;16.00;94.30;;;;;;6159356;23;20433;-72
2022/06/22 19:45:03;;;;;;;6.65;4.57;;;15.90;94.40;;;;;;6075997;23;20432;-73
2022/06/22 19:47:50;;;;;;;6.25;4.28;;;15.80;95.10;;;;;;6184876;23;20013;-72
2022/06/22 19:50:43;;;;;;;11.13;5.55;;;15.70;94.90;;;;;;6201757;23;20011;-71
2022/06/22 19:53:49;;;;;;;5.85;3.80;;;15.60;95.40;;;;;;6189147;23;20115;-72
2022/06/22 19:56:44;;;;;;;6.55;3.97;;;15.60;95.20;;;;;;6108647;23;20108;-73
2022/06/22 19:59:12;;;;;;;7.20;3.70;;;15.60;95.60;;;;;;6214404;23;20108;-73
2022/06/22 20:01:53;;;;;;;7.63;4.75;;;15.40;95.30;;;;;;6214096;23;20067;-71
2022/06/22 20:04:21;;;;;;;7.57;4.20;;;15.40;96.10;;;;;;6188802;23;20051;-71
2022/06/22 20:07:18;;;;;;;6.28;4.53;;;15.40;95.50;;;;;;6163792;23;20024;-73
2022/06/22 20:10:12;;;;;;;5.75;4.20;;;15.30;96.20;;;;;;6149789;23;20316;-73
2022/06/22 20:12:56;;;;;;;4.75;3.85;;;15.20;95.50;;;;;;6188105;23;20119;-72
2022/06/22 20:15:27;;;;;;;6.60;4.70;;;15.20;96.30;;;;;;6250375;22;20369;-73
2022/06/22 20:17:59;;;;;;;7.30;4.43;;;15.20;95.80;;;;;;6226069;22;20062;-71
2022/06/22 20:20:38;;;;;;;6.88;4.00;;;15.10;96.00;;;;;;6277573;22;20091;-71
2022/06/22 20:23:09;;;;;;;6.13;4.20;;;15.00;96.00;;;;;;6249587;22;20007;-72
2022/06/22 20:25:55;;;;;;;6.93;4.38;;;15.00;96.00;;;;;;6225006;22;20364;-70
2022/06/22 20:28:39;;;;;;;8.32;4.13;;;14.90;96.80;;;;;;6250667;22;20030;-72
2022/06/22 20:31:11;;;;;;;6.85;3.90;;;14.90;96.40;;;;;;6277076;22;20014;-71
2022/06/22 20:34:16;;;;;;;6.95;4.60;;;14.90;96.50;;;;;;6250251;22;20071;-72
2022/06/22 20:37:11;;;;;;;5.60;3.83;;;14.90;96.80;;;;;;6128737;22;20287;-72
2022/06/22 20:39:41;;;;;;;5.95;4.03;;;14.80;97.00;;;;;;6218572;22;20086;-72
2022/06/22 20:42:22;;;;;;;8.02;4.20;;;14.70;97.10;;;;;;6250820;22;20012;-71
2022/06/22 20:45:06;;;;;;;6.18;4.10;;;14.70;97.10;;;;;;6236467;22;20011;-70
2022/06/22 20:47:50;;;;;;;6.30;4.50;;;14.60;96.80;;;;;;6242142;22;20090;-73
2022/06/22 20:51:00;;;;;;;6.03;3.90;;;14.60;97.80;;;;;;6269721;22;20012;-74
2022/06/22 21:26:04;;;;;;;6.07;4.05;;;14.00;97.40;;;;;;6227524;22;20023;-72
2022/06/22 21:32:10;;;;;;;6.22;4.00;;;13.90;97.20;;;;;;6249203;22;20077;-75
2022/06/22 21:36:04;;;;;;;;;;;;;;;;;;;;;
2022/06/22 21:43:31;;;;;;;6.68;4.18;;;13.70;97.80;;;;;;6064917;23;20066;-76
2022/06/22 22:01:39;;;;;;;8.27;4.80;;;13.70;99.80;;;;;;6065167;23;20021;-74
2022/06/22 22:05:10;;;;;;;;;;;;;;;;;;;;;
2022/06/22 22:15:35;;;;;;;8.20;5.07;;;13.40;99.90;;;;;;6093682;23;20053;-74
2022/06/22 22:18:04;;;;;;;7.85;5.30;;;13.40;99.90;;;;;;6128622;23;20480;-73
2022/06/22 22:23:40;;;;;;;8.55;5.35;;;13.40;99.30;;;;;;6275701;22;20128;-72
2022/06/22 22:26:44;;;;;;;10.52;5.30;;;13.30;99.90;;;;;;6249400;22;20090;-73
2022/06/22 22:30:09;;;;;;;;;;;;;;;;;;;;;
2022/06/22 22:47:44;;;;;;;4.75;3.70;;;13.40;99.90;;;;;;6244533;22;20031;-74
2022/06/22 22:50:31;;;;;;;7.43;4.28;;;13.50;99.90;;;;;;6249628;22;20015;-77
2022/06/22 22:57:24;;;;;;;7.03;4.65;;;13.60;99.90;;;;;;6163860;22;20019;-76
2022/06/22 23:00:22;;;;;;;6.28;4.60;;;13.60;99.90;;;;;;6222860;22;20318;-76
2022/06/22 23:03:31;;;;;;;9.77;5.20;;;13.60;99.90;;;;;;6248906;22;20423;-78
2022/06/22 23:06:21;;;;;;;7.22;5.45;;;13.60;99.90;;;;;;6189041;22;20008;-77
2022/06/22 23:08:56;;;;;;;7.57;5.30;;;13.60;99.90;;;;;;6246126;22;20087;-78
2022/06/22 23:11:48;;;;;;;7.50;5.18;;;13.60;99.90;;;;;;6248155;22;20087;-77
2022/06/22 23:14:31;;;;;;;8.05;4.90;;;13.60;99.90;;;;;;6249695;22;20079;-76
2022/06/22 23:17:11;;;;;;;5.78;4.68;;;13.60;99.90;;;;;;6250213;22;20019;-79
2022/06/22 23:19:54;;;;;;;6.85;4.60;;;13.70;99.90;;;;;;6226852;22;20090;-79
2022/06/22 23:22:51;;;;;;;5.93;4.55;;;13.60;99.90;;;;;;6224840;22;20074;-78
2022/06/22 23:25:51;;;;;;;7.82;4.95;;;13.60;99.90;;;;;;6235454;22;20370;-78
2022/06/22 23:28:28;;;;;;;5.90;4.53;;;13.40;99.90;;;;;;6222801;22;20007;-77
2022/06/22 23:31:08;;;;;;;7.05;4.47;;;13.40;99.90;;;;;;6251216;22;20015;-78
2022/06/22 23:33:56;;;;;;;7.43;4.75;;;13.40;99.90;;;;;;6250644;22;20090;-78
2022/06/22 23:36:37;;;;;;;6.53;4.78;;;13.20;99.90;;;;;;6225502;22;20012;-77
2022/06/22 23:42:30;;;;;;;8.88;5.47;;;13.20;99.90;;;;;;6249937;22;20012;-76
2022/06/22 23:45:22;;;;;;;6.63;5.45;;;13.10;99.90;;;;;;6251083;22;20014;-77
2022/06/22 23:48:31;;;;;;;11.55;6.20;;;12.90;99.90;;;;;;6271051;22;20062;-76
2022/06/22 23:51:19;;;;;;;7.28;5.20;;;12.90;99.90;;;;;;6226109;22;20342;-79
2022/06/22 23:53:56;;;;;;;;;;;12.80;99.90;;;;;;6226403;22;20023;-77
2022/06/22 23:56:34;;;;;;;9.75;5.45;;;13.00;99.90;;;;;;6225227;22;20325;-78
2022/06/22 23:59:25;;;;;;;6.70;5.20;;;12.90;99.90;;;;;;6251214;22;20011;-76
